sensor_id;sensor_type;location;lat;lon;timestamp;temperature;humidity
20722;DHT22;10522;52.198;9.890;2022-07-06T00:01:10;14.80;99.90
20722;DHT22;10522;52.198;9.890;2022-07-06T00:03:35;14.70;99.90
20722;DHT22;10522;52.198;9.890;2022-07-06T00:06:01;14.70;99.90
20722;DHT22;10522;52.198;9.890;2022-07-06T00:08:26;14.60;99.90
20722;DHT22;10522;52.198;9.890;2022-07-06T00:10:52;14.60;99.90
20722;DHT22;10522;52.198;9.890;2022-07-06T00:13:17;14.50;99.90
20722;DHT22;10522;52.198;9.890;2022-07-06T00:15:43;14.50;99.90
20722;DHT22;10522;52.198;9.890;2022-07-06T00:18:08;14.40;99.90
20722;DHT22;10522;52.198;9.890;2022-07-06T00:20:34;14.40;99.90
20722;DHT22;10522;52.198;9.890;2022-07-06T00:22:59;14.40;99.90
20722;DHT22;10522;52.198;9.890;2022-07-06T00:25:25;14.40;99.90
20722;DHT22;10522;52.198;9.890;2022-07-06T00:27:50;14.40;99.90
20722;DHT22;10522;52.198;9.890;2022-07-06T00:30:16;14.40;99.90
20722;DHT22;10522;52.198;9.890;2022-07-06T00:32:41;14.50;99.90
20722;DHT22;10522;52.198;9.890;2022-07-06T00:35:07;14.50;99.90
20722;DHT22;10522;52.198;9.890;2022-07-06T00:37:33;14.50;99.90
20722;DHT22;10522;52.198;9.890;2022-07-06T00:39:58;14.50;99.90
20722;DHT22;10522;52.198;9.890;2022-07-06T00:42:23;14.60;99.90
20722;DHT22;10522;52.198;9.890;2022-07-06T00:44:50;14.60;99.90
20722;DHT22;10522;52.198;9.890;2022-07-06T00:47:15;14.60;99.90
20722;DHT22;10522;52.198;9.890;2022-07-06T00:49:41;14.70;99.90
20722;DHT22;10522;52.198;9.890;2022-07-06T00:52:25;14.60;99.90
20722;DHT22;10522;52.198;9.890;2022-07-06T00:54:51;14.50;99.90
20722;DHT22;10522;52.198;9.890;2022-07-06T00:57:17;14.40;99.90
20722;DHT22;10522;52.198;9.890;2022-07-06T00:59:43;14.40;99.90
20722;DHT22;10522;52.198;9.890;2022-07-06T01:02:09;14.30;99.90
20722;DHT22;10522;52.198;9.890;2022-07-06T01:04:34;14.30;99.90
20722;DHT22;10522;52.198;9.890;2022-07-06T01:07:00;14.30;99.90
20722;DHT22;10522;52.198;9.890;2022-07-06T01:09:26;14.20;99.90
20722;DHT22;10522;52.198;9.890;2022-07-06T01:11:52;14.10;99.90
20722;DHT22;10522;52.198;9.890;2022-07-06T01:14:19;14.10;99.90
20722;DHT22;10522;52.198;9.890;2022-07-06T01:16:45;14.10;99.90
20722;DHT22;10522;52.198;9.890;2022-07-06T01:19:10;14.10;99.90
20722;DHT22;10522;52.198;9.890;2022-07-06T01:21:38;14.20;99.90
20722;DHT22;10522;52.198;9.890;2022-07-06T01:24:03;14.30;99.90
20722;DHT22;10522;52.198;9.890;2022-07-06T01:26:29;14.30;99.90
20722;DHT22;10522;52.198;9.890;2022-07-06T01:28:55;14.40;99.90
20722;DHT22;10522;52.198;9.890;2022-07-06T01:31:23;14.30;99.90
20722;DHT22;10522;52.198;9.890;2022-07-06T01:33:49;14.20;99.90
20722;DHT22;10522;52.198;9.890;2022-07-06T01:36:15;14.20;99.90
20722;DHT22;10522;52.198;9.890;2022-07-06T01:38:51;14.20;99.90
20722;DHT22;10522;52.198;9.890;2022-07-06T01:41:18;14.10;99.90
20722;DHT22;10522;52.198;9.890;2022-07-06T01:43:44;14.10;99.90
20722;DHT22;10522;52.198;9.890;2022-07-06T01:46:10;14.10;99.90
20722;DHT22;10522;52.198;9.890;2022-07-06T01:48:35;14.10;99.90
20722;DHT22;10522;52.198;9.890;2022-07-06T01:51:02;14.20;99.90
20722;DHT22;10522;52.198;9.890;2022-07-06T01:53:27;14.10;99.90
20722;DHT22;10522;52.198;9.890;2022-07-06T01:55:53;14.20;99.90
20722;DHT22;10522;52.198;9.890;2022-07-06T01:58:18;14.20;99.90
20722;DHT22;10522;52.198;9.890;2022-07-06T02:00:44;14.10;99.90
20722;DHT22;10522;52.198;9.890;2022-07-06T02:03:09;14.10;99.90
20722;DHT22;10522;52.198;9.890;2022-07-06T02:05:35;14.20;99.90
20722;DHT22;10522;52.198;9.890;2022-07-06T02:08:00;14.30;99.90
20722;DHT22;10522;52.198;9.890;2022-07-06T02:10:26;14.30;99.90
20722;DHT22;10522;52.198;9.890;2022-07-06T02:12:51;14.20;99.90
20722;DHT22;10522;52.198;9.890;2022-07-06T02:15:17;14.20;99.90
20722;DHT22;10522;52.198;9.890;2022-07-06T02:17:42;14.10;99.90
20722;DHT22;10522;52.198;9.890;2022-07-06T02:20:08;14.10;99.90
20722;DHT22;10522;52.198;9.890;2022-07-06T02:22:34;14.10;99.90
20722;DHT22;10522;52.198;9.890;2022-07-06T02:24:59;14.00;99.90
20722;DHT22;10522;52.198;9.890;2022-07-06T02:27:25;14.00;99.90
20722;DHT22;10522;52.198;9.890;2022-07-06T02:29:51;14.10;99.90
20722;DHT22;10522;52.198;9.890;2022-07-06T02:32:17;14.10;99.90
20722;DHT22;10522;52.198;9.890;2022-07-06T02:34:42;14.20;99.90
20722;DHT22;10522;52.198;9.890;2022-07-06T02:37:08;14.20;99.90
20722;DHT22;10522;52.198;9.890;2022-07-06T02:39:33;14.20;99.90
20722;DHT22;10522;52.198;9.890;2022-07-06T02:41:59;14.20;99.90
20722;DHT22;10522;52.198;9.890;2022-07-06T02:44:24;14.10;99.90
20722;DHT22;10522;52.198;9.890;2022-07-06T02:46:50;14.10;99.90
20722;DHT22;10522;52.198;9.890;2022-07-06T02:49:15;14.10;99.90
20722;DHT22;10522;52.198;9.890;2022-07-06T02:51:41;14.10;99.90
20722;DHT22;10522;52.198;9.890;2022-07-06T02:54:06;14.00;99.90
20722;DHT22;10522;52.198;9.890;2022-07-06T02:56:32;14.00;99.90
20722;DHT22;10522;52.198;9.890;2022-07-06T02:58:57;14.00;99.90
20722;DHT22;10522;52.198;9.890;2022-07-06T03:01:23;14.00;99.90
20722;DHT22;10522;52.198;9.890;2022-07-06T03:03:48;13.90;99.90
20722;DHT22;10522;52.198;9.890;2022-07-06T03:06:14;14.00;99.90
20722;DHT22;10522;52.198;9.890;2022-07-06T03:08:39;13.90;99.90
20722;DHT22;10522;52.198;9.890;2022-07-06T03:11:05;14.00;99.90
20722;DHT22;10522;52.198;9.890;2022-07-06T03:13:30;14.00;99.90
20722;DHT22;10522;52.198;9.890;2022-07-06T03:15:56;14.00;99.90
20722;DHT22;10522;52.198;9.890;2022-07-06T03:18:22;14.00;99.90
20722;DHT22;10522;52.198;9.890;2022-07-06T03:20:47;14.00;99.90
20722;DHT22;10522;52.198;9.890;2022-07-06T03:23:13;14.00;99.90
20722;DHT22;10522;52.198;9.890;2022-07-06T03:25:38;14.00;99.90
20722;DHT22;10522;52.198;9.890;2022-07-06T03:28:04;14.00;99.90
20722;DHT22;10522;52.198;9.890;2022-07-06T03:30:29;14.10;99.90
20722;DHT22;10522;52.198;9.890;2022-07-06T03:32:55;14.10;99.90
20722;DHT22;10522;52.198;9.890;2022-07-06T03:35:20;14.10;99.90
20722;DHT22;10522;52.198;9.890;2022-07-06T03:37:46;14.10;99.90
20722;DHT22;10522;52.198;9.890;2022-07-06T03:40:12;14.10;99.90
20722;DHT22;10522;52.198;9.890;2022-07-06T03:42:37;14.10;99.90
20722;DHT22;10522;52.198;9.890;2022-07-06T03:45:04;14.20;99.90
20722;DHT22;10522;52.198;9.890;2022-07-06T03:47:30;14.20;99.90
20722;DHT22;10522;52.198;9.890;2022-07-06T03:49:56;14.20;99.90
20722;DHT22;10522;52.198;9.890;2022-07-06T03:52:21;14.20;99.90
20722;DHT22;10522;52.198;9.890;2022-07-06T03:54:47;14.20;99.90
20722;DHT22;10522;52.198;9.890;2022-07-06T03:57:12;14.20;99.90
20722;DHT22;10522;52.198;9.890;2022-07-06T03:59:39;14.30;99.90
20722;DHT22;10522;52.198;9.890;2022-07-06T04:02:04;14.30;99.90
20722;DHT22;10522;52.198;9.890;2022-07-06T04:04:30;14.40;99.90
20722;DHT22;10522;52.198;9.890;2022-07-06T04:06:56;14.40;99.90
20722;DHT22;10522;52.198;9.890;2022-07-06T04:09:22;14.40;99.90
20722;DHT22;10522;52.198;9.890;2022-07-06T04:11:47;14.40;99.90
20722;DHT22;10522;52.198;9.890;2022-07-06T04:14:13;14.50;99.90
20722;DHT22;10522;52.198;9.890;2022-07-06T04:16:38;14.40;99.90
20722;DHT22;10522;52.198;9.890;2022-07-06T04:19:04;14.50;99.90
20722;DHT22;10522;52.198;9.890;2022-07-06T04:21:29;14.50;99.90
20722;DHT22;10522;52.198;9.890;2022-07-06T04:23:55;14.60;99.90
20722;DHT22;10522;52.198;9.890;2022-07-06T04:26:20;14.60;99.90
20722;DHT22;10522;52.198;9.890;2022-07-06T04:28:46;14.60;99.90
20722;DHT22;10522;52.198;9.890;2022-07-06T04:31:11;14.70;99.90
20722;DHT22;10522;52.198;9.890;2022-07-06T04:33:41;14.80;99.90
20722;DHT22;10522;52.198;9.890;2022-07-06T04:36:07;14.80;99.90
20722;DHT22;10522;52.198;9.890;2022-07-06T04:38:32;14.80;99.90
20722;DHT22;10522;52.198;9.890;2022-07-06T04:40:58;14.90;99.90
20722;DHT22;10522;52.198;9.890;2022-07-06T04:43:23;14.90;99.90
20722;DHT22;10522;52.198;9.890;2022-07-06T04:45:49;15.10;99.90
20722;DHT22;10522;52.198;9.890;2022-07-06T04:48:14;15.10;99.90
20722;DHT22;10522;52.198;9.890;2022-07-06T04:50:40;15.20;99.90
20722;DHT22;10522;52.198;9.890;2022-07-06T04:53:06;15.20;99.90
20722;DHT22;10522;52.198;9.890;2022-07-06T04:55:31;15.20;99.90
20722;DHT22;10522;52.198;9.890;2022-07-06T04:57:57;15.40;99.90
20722;DHT22;10522;52.198;9.890;2022-07-06T05:00:22;15.50;99.90
20722;DHT22;10522;52.198;9.890;2022-07-06T05:02:48;15.50;99.90
20722;DHT22;10522;52.198;9.890;2022-07-06T05:05:13;15.50;99.90
20722;DHT22;10522;52.198;9.890;2022-07-06T05:07:39;15.50;99.90
20722;DHT22;10522;52.198;9.890;2022-07-06T05:10:10;15.70;99.90
20722;DHT22;10522;52.198;9.890;2022-07-06T05:12:35;15.80;99.90
20722;DHT22;10522;52.198;9.890;2022-07-06T05:15:01;15.90;99.90
20722;DHT22;10522;52.198;9.890;2022-07-06T05:17:26;16.00;99.90
20722;DHT22;10522;52.198;9.890;2022-07-06T05:19:52;16.10;99.90
20722;DHT22;10522;52.198;9.890;2022-07-06T05:22:18;16.10;99.90
20722;DHT22;10522;52.198;9.890;2022-07-06T05:24:44;15.90;99.90
20722;DHT22;10522;52.198;9.890;2022-07-06T05:27:09;15.90;99.90
20722;DHT22;10522;52.198;9.890;2022-07-06T05:29:35;15.90;99.90
20722;DHT22;10522;52.198;9.890;2022-07-06T05:32:01;16.10;99.90
20722;DHT22;10522;52.198;9.890;2022-07-06T05:34:26;16.00;99.90
20722;DHT22;10522;52.198;9.890;2022-07-06T05:36:51;16.00;99.90
20722;DHT22;10522;52.198;9.890;2022-07-06T05:39:17;15.90;99.90
20722;DHT22;10522;52.198;9.890;2022-07-06T05:41:45;16.00;99.90
20722;DHT22;10522;52.198;9.890;2022-07-06T05:44:10;15.90;99.90
20722;DHT22;10522;52.198;9.890;2022-07-06T05:46:36;16.00;99.90
20722;DHT22;10522;52.198;9.890;2022-07-06T05:49:01;16.30;99.90
20722;DHT22;10522;52.198;9.890;2022-07-06T05:51:45;16.40;99.90
20722;DHT22;10522;52.198;9.890;2022-07-06T05:54:11;16.50;99.90
20722;DHT22;10522;52.198;9.890;2022-07-06T05:56:36;16.70;99.90
20722;DHT22;10522;52.198;9.890;2022-07-06T05:59:02;16.80;99.90
20722;DHT22;10522;52.198;9.890;2022-07-06T06:01:28;16.90;99.90
20722;DHT22;10522;52.198;9.890;2022-07-06T06:03:53;16.80;99.90
20722;DHT22;10522;52.198;9.890;2022-07-06T06:06:19;16.80;99.90
20722;DHT22;10522;52.198;9.890;2022-07-06T06:08:44;17.30;99.90
20722;DHT22;10522;52.198;9.890;2022-07-06T06:11:10;17.40;99.90
20722;DHT22;10522;52.198;9.890;2022-07-06T06:13:35;17.60;99.90
20722;DHT22;10522;52.198;9.890;2022-07-06T06:16:01;17.80;99.90
20722;DHT22;10522;52.198;9.890;2022-07-06T06:18:26;17.40;99.90
20722;DHT22;10522;52.198;9.890;2022-07-06T06:20:52;17.40;99.90
20722;DHT22;10522;52.198;9.890;2022-07-06T06:23:17;17.20;99.90
20722;DHT22;10522;52.198;9.890;2022-07-06T06:25:43;17.00;99.90
20722;DHT22;10522;52.198;9.890;2022-07-06T06:28:10;16.90;99.90
20722;DHT22;10522;52.198;9.890;2022-07-06T06:30:37;16.70;99.90
20722;DHT22;10522;52.198;9.890;2022-07-06T06:33:07;16.70;99.90
20722;DHT22;10522;52.198;9.890;2022-07-06T06:35:33;16.70;99.90
20722;DHT22;10522;52.198;9.890;2022-07-06T06:37:59;17.20;99.90
20722;DHT22;10522;52.198;9.890;2022-07-06T06:40:24;17.80;99.90
20722;DHT22;10522;52.198;9.890;2022-07-06T06:42:50;18.30;99.90
20722;DHT22;10522;52.198;9.890;2022-07-06T06:45:15;18.10;99.90
20722;DHT22;10522;52.198;9.890;2022-07-06T06:47:41;17.80;99.90
20722;DHT22;10522;52.198;9.890;2022-07-06T06:50:06;17.90;99.90
20722;DHT22;10522;52.198;9.890;2022-07-06T06:52:32;18.00;99.90
20722;DHT22;10522;52.198;9.890;2022-07-06T06:54:58;18.10;99.90
20722;DHT22;10522;52.198;9.890;2022-07-06T06:57:23;18.10;99.90
20722;DHT22;10522;52.198;9.890;2022-07-06T06:59:49;18.10;99.90
20722;DHT22;10522;52.198;9.890;2022-07-06T07:02:14;18.20;99.90
20722;DHT22;10522;52.198;9.890;2022-07-06T07:04:40;18.20;99.90
20722;DHT22;10522;52.198;9.890;2022-07-06T07:07:05;18.30;99.90
20722;DHT22;10522;52.198;9.890;2022-07-06T07:09:31;18.20;99.90
20722;DHT22;10522;52.198;9.890;2022-07-06T07:11:56;18.00;99.90
20722;DHT22;10522;52.198;9.890;2022-07-06T07:14:23;18.10;99.90
20722;DHT22;10522;52.198;9.890;2022-07-06T07:16:48;18.10;99.90
20722;DHT22;10522;52.198;9.890;2022-07-06T07:19:14;17.90;99.90
20722;DHT22;10522;52.198;9.890;2022-07-06T07:21:39;17.90;99.90
20722;DHT22;10522;52.198;9.890;2022-07-06T07:24:05;17.80;99.90
20722;DHT22;10522;52.198;9.890;2022-07-06T07:26:31;17.90;99.90
20722;DHT22;10522;52.198;9.890;2022-07-06T07:28:56;17.50;99.90
20722;DHT22;10522;52.198;9.890;2022-07-06T07:31:22;17.60;99.90
20722;DHT22;10522;52.198;9.890;2022-07-06T07:33:47;17.70;99.90
20722;DHT22;10522;52.198;9.890;2022-07-06T07:36:13;17.70;99.90
20722;DHT22;10522;52.198;9.890;2022-07-06T07:38:39;17.80;99.90
20722;DHT22;10522;52.198;9.890;2022-07-06T07:41:04;18.00;99.90
20722;DHT22;10522;52.198;9.890;2022-07-06T07:43:31;18.20;99.90
20722;DHT22;10522;52.198;9.890;2022-07-06T07:45:57;18.30;99.90
20722;DHT22;10522;52.198;9.890;2022-07-06T07:48:22;18.30;99.90
20722;DHT22;10522;52.198;9.890;2022-07-06T07:50:48;18.30;99.90
20722;DHT22;10522;52.198;9.890;2022-07-06T07:53:13;18.30;99.90
20722;DHT22;10522;52.198;9.890;2022-07-06T07:55:39;18.30;99.90
20722;DHT22;10522;52.198;9.890;2022-07-06T07:58:04;18.50;99.90
20722;DHT22;10522;52.198;9.890;2022-07-06T08:00:30;18.60;99.90
20722;DHT22;10522;52.198;9.890;2022-07-06T08:02:55;18.60;99.90
20722;DHT22;10522;52.198;9.890;2022-07-06T08:05:21;18.60;99.90
20722;DHT22;10522;52.198;9.890;2022-07-06T08:07:47;18.40;99.90
20722;DHT22;10522;52.198;9.890;2022-07-06T08:10:12;18.70;99.90
20722;DHT22;10522;52.198;9.890;2022-07-06T08:12:38;18.70;99.90
20722;DHT22;10522;52.198;9.890;2022-07-06T08:15:04;18.80;99.90
20722;DHT22;10522;52.198;9.890;2022-07-06T08:17:30;18.70;99.90
20722;DHT22;10522;52.198;9.890;2022-07-06T08:19:56;18.70;99.90
20722;DHT22;10522;52.198;9.890;2022-07-06T08:22:21;18.90;99.90
20722;DHT22;10522;52.198;9.890;2022-07-06T08:24:47;19.10;99.90
20722;DHT22;10522;52.198;9.890;2022-07-06T08:27:12;19.10;99.90
20722;DHT22;10522;52.198;9.890;2022-07-06T08:29:38;19.10;99.90
20722;DHT22;10522;52.198;9.890;2022-07-06T08:32:04;19.00;99.90
20722;DHT22;10522;52.198;9.890;2022-07-06T08:34:29;19.10;99.90
20722;DHT22;10522;52.198;9.890;2022-07-06T08:36:55;19.30;99.90
20722;DHT22;10522;52.198;9.890;2022-07-06T08:39:20;19.50;99.90
20722;DHT22;10522;52.198;9.890;2022-07-06T08:41:47;19.50;99.90
20722;DHT22;10522;52.198;9.890;2022-07-06T08:44:16;19.50;99.90
20722;DHT22;10522;52.198;9.890;2022-07-06T08:46:42;19.60;99.90
20722;DHT22;10522;52.198;9.890;2022-07-06T08:49:08;20.00;99.90
20722;DHT22;10522;52.198;9.890;2022-07-06T08:51:37;19.90;99.90
20722;DHT22;10522;52.198;9.890;2022-07-06T08:54:03;19.40;99.90
20722;DHT22;10522;52.198;9.890;2022-07-06T08:56:29;19.70;99.90
20722;DHT22;10522;52.198;9.890;2022-07-06T08:58:55;19.70;99.90
20722;DHT22;10522;52.198;9.890;2022-07-06T09:01:21;19.70;99.90
20722;DHT22;10522;52.198;9.890;2022-07-06T09:03:49;19.50;99.90
20722;DHT22;10522;52.198;9.890;2022-07-06T09:06:17;19.60;99.90
20722;DHT22;10522;52.198;9.890;2022-07-06T09:08:45;19.90;99.90
20722;DHT22;10522;52.198;9.890;2022-07-06T09:11:11;19.90;99.90
20722;DHT22;10522;52.198;9.890;2022-07-06T09:13:37;19.70;99.90
20722;DHT22;10522;52.198;9.890;2022-07-06T09:16:14;19.20;99.90
20722;DHT22;10522;52.198;9.890;2022-07-06T09:18:40;18.90;99.90
20722;DHT22;10522;52.198;9.890;2022-07-06T09:21:08;19.00;99.90
20722;DHT22;10522;52.198;9.890;2022-07-06T09:23:35;19.30;99.90
20722;DHT22;10522;52.198;9.890;2022-07-06T09:26:05;19.50;99.90
20722;DHT22;10522;52.198;9.890;2022-07-06T09:28:44;19.60;99.90
20722;DHT22;10522;52.198;9.890;2022-07-06T09:31:10;19.70;99.90
20722;DHT22;10522;52.198;9.890;2022-07-06T09:33:36;19.90;99.90
20722;DHT22;10522;52.198;9.890;2022-07-06T09:36:03;20.20;99.90
20722;DHT22;10522;52.198;9.890;2022-07-06T09:38:31;20.00;99.90
20722;DHT22;10522;52.198;9.890;2022-07-06T09:40:56;20.00;99.90
20722;DHT22;10522;52.198;9.890;2022-07-06T09:43:23;20.50;99.90
20722;DHT22;10522;52.198;9.890;2022-07-06T09:45:51;20.30;99.90
20722;DHT22;10522;52.198;9.890;2022-07-06T09:48:18;20.20;99.90
20722;DHT22;10522;52.198;9.890;2022-07-06T09:50:48;20.10;99.90
20722;DHT22;10522;52.198;9.890;2022-07-06T09:53:17;20.40;99.90
20722;DHT22;10522;52.198;9.890;2022-07-06T09:55:44;20.30;99.90
20722;DHT22;10522;52.198;9.890;2022-07-06T09:58:10;20.40;99.90
20722;DHT22;10522;52.198;9.890;2022-07-06T10:00:35;20.20;99.90
20722;DHT22;10522;52.198;9.890;2022-07-06T10:03:01;20.20;99.90
20722;DHT22;10522;52.198;9.890;2022-07-06T10:05:27;20.50;99.90
20722;DHT22;10522;52.198;9.890;2022-07-06T10:07:58;20.40;99.90
20722;DHT22;10522;52.198;9.890;2022-07-06T10:10:26;20.10;99.90
20722;DHT22;10522;52.198;9.890;2022-07-06T10:12:54;20.10;99.90
20722;DHT22;10522;52.198;9.890;2022-07-06T10:15:22;19.80;99.90
20722;DHT22;10522;52.198;9.890;2022-07-06T10:17:49;19.50;99.90
20722;DHT22;10522;52.198;9.890;2022-07-06T10:20:15;19.30;99.90
20722;DHT22;10522;52.198;9.890;2022-07-06T10:22:41;19.10;99.90
20722;DHT22;10522;52.198;9.890;2022-07-06T10:25:08;19.00;99.90
20722;DHT22;10522;52.198;9.890;2022-07-06T10:27:34;18.90;99.90
20722;DHT22;10522;52.198;9.890;2022-07-06T10:30:01;18.80;99.90
20722;DHT22;10522;52.198;9.890;2022-07-06T10:32:27;18.70;99.90
20722;DHT22;10522;52.198;9.890;2022-07-06T10:34:53;18.70;99.90
20722;DHT22;10522;52.198;9.890;2022-07-06T10:37:26;18.80;99.90
20722;DHT22;10522;52.198;9.890;2022-07-06T10:39:52;18.90;99.90
20722;DHT22;10522;52.198;9.890;2022-07-06T10:45:06;19.50;99.90
20722;DHT22;10522;52.198;9.890;2022-07-06T10:47:31;19.70;99.90
20722;DHT22;10522;52.198;9.890;2022-07-06T10:50:01;19.70;99.90
20722;DHT22;10522;52.198;9.890;2022-07-06T10:53:30;19.90;99.90
20722;DHT22;10522;52.198;9.890;2022-07-06T10:55:37;20.10;99.90
20722;DHT22;10522;52.198;9.890;2022-07-06T10:58:04;20.70;99.90
20722;DHT22;10522;52.198;9.890;2022-07-06T11:00:48;21.00;99.90
20722;DHT22;10522;52.198;9.890;2022-07-06T11:03:30;20.80;99.90
20722;DHT22;10522;52.198;9.890;2022-07-06T11:06:19;20.80;99.90
20722;DHT22;10522;52.198;9.890;2022-07-06T11:09:01;20.40;99.90
20722;DHT22;10522;52.198;9.890;2022-07-06T11:14:08;19.60;99.90
20722;DHT22;10522;52.198;9.890;2022-07-06T11:16:37;19.30;99.90
20722;DHT22;10522;52.198;9.890;2022-07-06T11:19:06;19.20;99.90
20722;DHT22;10522;52.198;9.890;2022-07-06T11:21:46;19.20;99.90
20722;DHT22;10522;52.198;9.890;2022-07-06T11:24:14;19.20;99.90
20722;DHT22;10522;52.198;9.890;2022-07-06T11:26:41;19.40;99.90
20722;DHT22;10522;52.198;9.890;2022-07-06T11:29:10;19.50;99.90
20722;DHT22;10522;52.198;9.890;2022-07-06T11:31:39;19.50;99.90
20722;DHT22;10522;52.198;9.890;2022-07-06T11:34:06;19.70;99.90
20722;DHT22;10522;52.198;9.890;2022-07-06T11:36:32;19.90;99.90
20722;DHT22;10522;52.198;9.890;2022-07-06T11:38:58;20.00;99.90
20722;DHT22;10522;52.198;9.890;2022-07-06T11:41:24;20.00;99.90
20722;DHT22;10522;52.198;9.890;2022-07-06T11:43:49;20.50;99.90
20722;DHT22;10522;52.198;9.890;2022-07-06T11:46:20;20.70;99.90
20722;DHT22;10522;52.198;9.890;2022-07-06T11:48:47;21.10;99.90
20722;DHT22;10522;52.198;9.890;2022-07-06T11:51:14;21.90;99.90
20722;DHT22;10522;52.198;9.890;2022-07-06T11:53:47;22.60;99.90
20722;DHT22;10522;52.198;9.890;2022-07-06T11:56:17;22.80;99.90
20722;DHT22;10522;52.198;9.890;2022-07-06T11:58:49;23.10;99.90
20722;DHT22;10522;52.198;9.890;2022-07-06T12:01:15;23.00;99.90
20722;DHT22;10522;52.198;9.890;2022-07-06T12:03:41;22.90;99.90
20722;DHT22;10522;52.198;9.890;2022-07-06T12:06:30;22.90;99.90
20722;DHT22;10522;52.198;9.890;2022-07-06T12:08:58;22.80;99.90
20722;DHT22;10522;52.198;9.890;2022-07-06T12:11:32;22.80;99.90
20722;DHT22;10522;52.198;9.890;2022-07-06T12:14:01;22.70;99.90
20722;DHT22;10522;52.198;9.890;2022-07-06T12:16:36;22.70;99.90
20722;DHT22;10522;52.198;9.890;2022-07-06T12:19:03;22.70;99.90
20722;DHT22;10522;52.198;9.890;2022-07-06T12:21:30;22.70;99.90
20722;DHT22;10522;52.198;9.890;2022-07-06T12:23:56;22.50;99.90
20722;DHT22;10522;52.198;9.890;2022-07-06T12:26:23;22.40;99.90
20722;DHT22;10522;52.198;9.890;2022-07-06T12:29:05;22.70;99.90
20722;DHT22;10522;52.198;9.890;2022-07-06T12:31:38;22.90;99.90
20722;DHT22;10522;52.198;9.890;2022-07-06T12:34:05;22.70;99.90
20722;DHT22;10522;52.198;9.890;2022-07-06T12:36:53;22.50;99.90
20722;DHT22;10522;52.198;9.890;2022-07-06T12:39:29;22.30;99.90
20722;DHT22;10522;52.198;9.890;2022-07-06T12:41:56;22.20;99.90
20722;DHT22;10522;52.198;9.890;2022-07-06T12:44:26;22.00;99.90
20722;DHT22;10522;52.198;9.890;2022-07-06T12:47:11;21.90;99.90
20722;DHT22;10522;52.198;9.890;2022-07-06T12:49:38;21.70;99.90
20722;DHT22;10522;52.198;9.890;2022-07-06T12:52:08;21.50;99.90
20722;DHT22;10522;52.198;9.890;2022-07-06T12:54:45;21.40;99.90
20722;DHT22;10522;52.198;9.890;2022-07-06T12:57:22;21.50;99.90
20722;DHT22;10522;52.198;9.890;2022-07-06T13:05:10;22.00;99.90
20722;DHT22;10522;52.198;9.890;2022-07-06T13:07:37;22.00;99.90
20722;DHT22;10522;52.198;9.890;2022-07-06T13:10:08;22.10;99.90
20722;DHT22;10522;52.198;9.890;2022-07-06T13:12:35;22.00;99.90
20722;DHT22;10522;52.198;9.890;2022-07-06T13:15:02;21.50;99.90
20722;DHT22;10522;52.198;9.890;2022-07-06T13:17:28;21.50;99.90
20722;DHT22;10522;52.198;9.890;2022-07-06T13:19:53;21.60;99.90
20722;DHT22;10522;52.198;9.890;2022-07-06T13:22:19;21.60;99.90
20722;DHT22;10522;52.198;9.890;2022-07-06T13:24:44;21.70;99.90
20722;DHT22;10522;52.198;9.890;2022-07-06T13:27:10;21.80;99.90
20722;DHT22;10522;52.198;9.890;2022-07-06T13:29:36;21.70;99.90
20722;DHT22;10522;52.198;9.890;2022-07-06T13:32:03;22.40;99.90
20722;DHT22;10522;52.198;9.890;2022-07-06T13:34:29;22.20;99.90
20722;DHT22;10522;52.198;9.890;2022-07-06T13:36:55;22.40;99.90
20722;DHT22;10522;52.198;9.890;2022-07-06T13:39:20;22.50;99.90
20722;DHT22;10522;52.198;9.890;2022-07-06T13:41:46;22.20;99.90
20722;DHT22;10522;52.198;9.890;2022-07-06T13:44:11;21.50;99.90
20722;DHT22;10522;52.198;9.890;2022-07-06T13:46:38;21.50;99.90
20722;DHT22;10522;52.198;9.890;2022-07-06T13:49:08;21.20;99.90
20722;DHT22;10522;52.198;9.890;2022-07-06T13:51:33;21.30;99.90
20722;DHT22;10522;52.198;9.890;2022-07-06T13:53:59;21.10;99.90
20722;DHT22;10522;52.198;9.890;2022-07-06T13:56:26;21.30;99.90
20722;DHT22;10522;52.198;9.890;2022-07-06T13:58:51;21.20;99.90
20722;DHT22;10522;52.198;9.890;2022-07-06T14:01:17;21.40;99.90
20722;DHT22;10522;52.198;9.890;2022-07-06T14:03:43;21.90;99.90
20722;DHT22;10522;52.198;9.890;2022-07-06T14:06:09;22.00;99.90
20722;DHT22;10522;52.198;9.890;2022-07-06T14:08:35;21.90;99.90
20722;DHT22;10522;52.198;9.890;2022-07-06T14:11:01;21.70;99.90
20722;DHT22;10522;52.198;9.890;2022-07-06T14:13:26;21.50;99.90
20722;DHT22;10522;52.198;9.890;2022-07-06T14:15:53;21.30;99.90
20722;DHT22;10522;52.198;9.890;2022-07-06T14:18:19;22.10;99.90
20722;DHT22;10522;52.198;9.890;2022-07-06T14:20:45;22.60;99.90
20722;DHT22;10522;52.198;9.890;2022-07-06T14:23:12;22.90;99.90
20722;DHT22;10522;52.198;9.890;2022-07-06T14:25:39;22.60;99.90
20722;DHT22;10522;52.198;9.890;2022-07-06T14:28:04;22.40;99.90
20722;DHT22;10522;52.198;9.890;2022-07-06T14:30:31;22.30;99.90
20722;DHT22;10522;52.198;9.890;2022-07-06T14:32:57;22.70;99.90
20722;DHT22;10522;52.198;9.890;2022-07-06T14:35:23;23.00;99.90
20722;DHT22;10522;52.198;9.890;2022-07-06T14:37:50;23.60;99.90
20722;DHT22;10522;52.198;9.890;2022-07-06T14:40:15;23.30;99.90
20722;DHT22;10522;52.198;9.890;2022-07-06T14:42:41;23.00;99.90
20722;DHT22;10522;52.198;9.890;2022-07-06T14:45:07;23.00;99.90
20722;DHT22;10522;52.198;9.890;2022-07-06T14:47:32;22.90;99.90
20722;DHT22;10522;52.198;9.890;2022-07-06T14:49:58;22.40;99.90
20722;DHT22;10522;52.198;9.890;2022-07-06T14:52:23;21.90;99.90
20722;DHT22;10522;52.198;9.890;2022-07-06T14:54:49;21.90;99.90
20722;DHT22;10522;52.198;9.890;2022-07-06T14:57:14;22.00;99.90
20722;DHT22;10522;52.198;9.890;2022-07-06T14:59:40;21.90;99.90
20722;DHT22;10522;52.198;9.890;2022-07-06T15:02:05;21.90;99.90
20722;DHT22;10522;52.198;9.890;2022-07-06T15:04:31;21.80;99.90
20722;DHT22;10522;52.198;9.890;2022-07-06T15:06:58;22.50;99.90
20722;DHT22;10522;52.198;9.890;2022-07-06T15:09:24;23.70;99.90
20722;DHT22;10522;52.198;9.890;2022-07-06T15:11:51;24.50;99.90
20722;DHT22;10522;52.198;9.890;2022-07-06T15:14:17;25.10;99.90
20722;DHT22;10522;52.198;9.890;2022-07-06T15:16:43;25.30;99.90
20722;DHT22;10522;52.198;9.890;2022-07-06T15:19:09;24.30;99.90
20722;DHT22;10522;52.198;9.890;2022-07-06T15:21:35;23.90;99.90
20722;DHT22;10522;52.198;9.890;2022-07-06T15:24:01;23.60;99.90
20722;DHT22;10522;52.198;9.890;2022-07-06T15:26:26;23.30;99.90
20722;DHT22;10522;52.198;9.890;2022-07-06T15:28:52;23.00;99.90
20722;DHT22;10522;52.198;9.890;2022-07-06T15:31:17;23.00;99.90
20722;DHT22;10522;52.198;9.890;2022-07-06T15:33:43;22.60;99.90
20722;DHT22;10522;52.198;9.890;2022-07-06T15:36:09;22.50;99.90
20722;DHT22;10522;52.198;9.890;2022-07-06T15:38:35;22.60;99.90